航空気象通報

ウインドサーファーのための航空気象通報による風予報です。

5/15-5/17の航空気象通報

2017年05月15日 23時16分45秒 | TAF
羽田空港
TAF RJTT 151110Z 1512/1618 01006KT 8000 FEW008 BKN012
TEMPO 1513/1515 4000 -SHRA BR FEW005 BKN008
TEMPO 1519/1522 4000 BR FEW005 BKN008
BECMG 1600/1603 14010KT
BECMG 1612/1615 02010KT
日本時間15日21時-16日09時:010度から6ノットの風
09-12時:風が変化
12-21時:140度から10ノットの風
21-24時:風が変化
17日00-03時:020度から10ノットの風

但し、15日22-24時の間:ときどき

静岡空港
TAF RJNS 151105Z 1512/1618 27012KT 9999 FEW030
TEMPO 1600/1609 24020G30KT
日本時間15日21時-17日03時:270度から12ノットの風
但し、16日09-18時の間:ときどき240度から20ノット、突風30ノット


福岡空港
TAF RJFF 151111Z 1512/1618 27005KT CAVOK
BECMG 1513/1515 16004KT
BECMG 1522/1600 32009KT
BECMG 1612/1615 18004KT
日本時間15日21-22時:270度から5ノットの風
22-24時:風が変化
16日00-07時:160度から4ノットの風
07-09時:風が変化
09-21時:320度から9ノットの風
21-24時:風が変化
17日00-03時:180度から4ノットの風


那覇空港
TAF ROAH 151111Z 1512/1618 07005KT 9999 SCT008 BKN020
TEMPO 1512/1518 FEW006 BKN008
TEMPO 1518/1521 4000 SHRA SCT008 BKN015 FEW020CB
TEMPO 1521/1603 2000 +TSRA SCT006 BKN010 SCT015CB
BECMG 1600/1603 04016KT
TEMPO 1603/1609 4000 SHRA SCT008 BKN015 FEW020CB
日本時間15日21時-16日09時:070度から5ノットの風
09-12時:風が変化
12時-17日03時:040度から16ノットの風

但し、16日03-06時の間:ときどき
但し、16日06-12時の間:ときどき
但し、16日12-18時の間:ときどき

石垣空港
TAF AMD ROIG 151237Z 1512/1618 07005KT 9999 -SHRA SCT008 BKN015
TEMPO 1512/1513 4000 SHRA FEW008 BKN015 FEW020CB
TEMPO 1513/1521 2000 +TSRA SCT006 BKN010 SCT015CB
TEMPO 1521/1600 4000 SHRA FEW008 BKN010 FEW020CB
BECMG 1606/1609 05018KT
TEMPO 1606/1609 4000 SHRA FEW008 BKN010 FEW020CB
日本時間15日21時-16日15時:070度から5ノットの風
15-18時:風が変化
18時-17日03時:050度から18ノットの風


マウイのカフルイ空港
PHOG 151121Z 1512/1612 06010KT P6SM VCSH FEW030 SCT050
FM152000 06018G28KT P6SM SCT050
FM160500 06012G22KT P6SM VCSH FEW030 SCT050
ハワイ時間15日02-10時:060度から10ノットの風
10-19時:060度から18ノット、突風28ノット
19日-16日02時:060度から12ノット、突風22ノット


サイパン空港
TAF PGSN 151122Z 1512/1612 08010KT P6SM VCSH SCT020 SCT050
FM152200 09015KT P6SM VCSH SCT020 SCT050
マリアナ時間15日22時-16日08時:080度から10ノットの風
08-22時:090度から15ノットの風

ジャンル:
お天気
コメント   この記事についてブログを書く
この記事をはてなブックマークに追加
« 5/14-5/16の航空気象通報 | トップ | 5/16-5/18の航空気象通報 »
最近の画像もっと見る

コメントを投稿

ブログ作成者から承認されるまでコメントは反映されません。

コメント利用規約に同意の上コメント投稿を行ってください。

数字4桁を入力し、投稿ボタンを押してください。

あわせて読む

トラックバック

この記事のトラックバック  Ping-URL
ブログ作成者から承認されるまでトラックバックは反映されません。
  • 30日以上前の記事に対するトラックバックは受け取らないよう設定されております。
  • 送信元の記事内容が半角英数のみのトラックバックは受け取らないよう設定されております。
  • このブログへのリンクがない記事からのトラックバックは受け取らないよう設定されております。
  • ※ブログ管理者のみ、編集画面で設定の変更が可能です。